Proctorville, Ohio
Current Conditions -  °F | °C
As of 3:51 PM on Monday 24 Nov 2014 (Local Time) from KHTS Reporting Station
Clear Clear  
Wind Chill: 63°   Ceiling: Unl
Heat Index: 63°   Visibility: 10mi
Dew Point: 43°   Wind: 12mph
Humidity: 48%   Direction: 250°WSW
Pressure: 29.66"   Gusts: 26mph
Location:  38.44°N, 82.38°W
Report Text: KHTS 242051Z 25010G23KT 10SM CLR 17/06 A2966 RMK AO2 PK WND 25028/2025 SLP039 T01720061 53045
Loading
Personal Weather Stations






























Interactive Weather Map New forecast layout! Learn more

10-Day Weather Forecast

Advertisements
Track Severe Weather on mobile